Time;durP1;ratioP1;P1;durP2;ratioP2;P2;SDS_P1;SDS_P2;PMS_P1;PMS_P2;Temp;Humidity;BMP_temperature;BMP_pressure;BME280_temperature;BME280_humidity;BME280_pressure;Samples;Min_cycle;Max_cycle;Signal;HPM_P1;HPM_P2
2023/07/30 00:00:24;;;;;;;10.77;8.02;;;;;;;;;;5091792;28;20027;-68
2023/07/30 00:02:50;;;;;;;8.73;7.28;;;;;;;;;;5091645;28;20373;-68
2023/07/30 00:05:17;;;;;;;10.30;7.47;;;;;;;;;;5091747;28;20143;-68
2023/07/30 00:07:43;;;;;;;8.55;7.35;;;;;;;;;;5091551;28;20020;-68
2023/07/30 00:10:10;;;;;;;10.98;7.60;;;;;;;;;;5091532;28;20369;-68
2023/07/30 00:12:36;;;;;;;10.98;7.30;;;;;;;;;;5091681;28;20487;-68
2023/07/30 00:15:03;;;;;;;8.75;7.53;;;;;;;;;;5091608;28;20136;-68
2023/07/30 00:17:29;;;;;;;8.93;7.75;;;;;;;;;;5091417;28;20023;-68
2023/07/30 00:19:55;;;;;;;9.70;7.85;;;;;;;;;;5094743;28;20020;-68
2023/07/30 00:22:22;;;;;;;8.88;7.20;;;;;;;;;;5095152;28;20382;-68
2023/07/30 00:24:48;;;;;;;10.20;7.78;;;;;;;;;;5095017;28;20419;-68
2023/07/30 00:27:14;;;;;;;9.18;7.47;;;;;;;;;;5095237;28;20539;-68
2023/07/30 00:29:40;;;;;;;9.43;7.47;;;;;;;;;;5094971;28;20382;-67
2023/07/30 00:32:07;;;;;;;10.35;7.55;;;;;;;;;;5094812;28;20024;-68
2023/07/30 00:34:34;;;;;;;8.32;7.22;;;;;;;;;;5095129;28;20031;-68
2023/07/30 00:37:00;;;;;;;9.85;7.57;;;;;;;;;;5094858;28;20381;-68
2023/07/30 00:39:29;;;;;;;9.05;7.80;;;;;;;;;;5094913;28;20490;-68
2023/07/30 00:42:04;;;;;;;10.70;8.05;;;;;;;;;;5094656;28;20513;-68
2023/07/30 00:44:30;;;;;;;8.80;7.28;;;;;;;;;;5094821;28;20529;-68
2023/07/30 00:46:57;;;;;;;9.93;7.30;;;;;;;;;;5094642;28;20498;-69
2023/07/30 00:49:23;;;;;;;9.63;7.40;;;;;;;;;;5094517;28;20035;-68
2023/07/30 00:51:49;;;;;;;9.77;7.40;;;;;;;;;;5094409;28;20028;-68
2023/07/30 00:54:16;;;;;;;8.00;7.20;;;;;;;;;;5094670;28;20054;-67
2023/07/30 00:56:49;;;;;;;8.82;7.32;;;;;;;;;;5094276;28;20016;-68
2023/07/30 00:59:15;;;;;;;8.48;7.50;;;;;;;;;;5094654;28;20470;-68
2023/07/30 01:01:43;;;;;;;9.40;7.50;;;;;;;;;;5094445;28;20032;-68
2023/07/30 01:04:09;;;;;;;10.65;7.97;;;;;;;;;;5094413;28;20024;-68
2023/07/30 01:06:36;;;;;;;9.13;7.10;;;;;;;;;;5094395;28;20032;-68
2023/07/30 01:09:02;;;;;;;9.48;7.28;;;;;;;;;;5094488;28;20042;-68
2023/07/30 01:11:29;;;;;;;11.30;7.78;;;;;;;;;;5094100;28;20408;-68
2023/07/30 01:13:56;;;;;;;8.50;7.60;;;;;;;;;;5094492;28;20038;-68
2023/07/30 01:16:23;;;;;;;10.55;7.85;;;;;;;;;;5094242;28;20073;-68
2023/07/30 01:18:49;;;;;;;9.35;7.53;;;;;;;;;;5094251;28;20070;-68
2023/07/30 01:21:15;;;;;;;8.23;7.25;;;;;;;;;;5094431;28;20032;-68
2023/07/30 01:23:42;;;;;;;8.77;7.30;;;;;;;;;;5094193;28;20074;-68
2023/07/30 01:26:09;;;;;;;7.90;7.00;;;;;;;;;;5093885;28;20089;-67
2023/07/30 01:28:38;;;;;;;9.65;7.30;;;;;;;;;;5093906;28;20105;-67
2023/07/30 01:31:05;;;;;;;7.65;6.85;;;;;;;;;;5093950;28;20761;-68
2023/07/30 01:33:32;;;;;;;8.95;7.30;;;;;;;;;;5093652;28;20062;-68
2023/07/30 01:35:59;;;;;;;8.27;7.30;;;;;;;;;;5094002;28;20020;-68
2023/07/30 01:38:26;;;;;;;9.80;7.30;;;;;;;;;;5094138;28;20568;-68
2023/07/30 01:40:53;;;;;;;8.18;7.15;;;;;;;;;;5093851;28;20025;-68
2023/07/30 01:43:19;;;;;;;9.50;7.10;;;;;;;;;;5093987;28;20036;-68
2023/07/30 01:45:45;;;;;;;7.63;6.63;;;;;;;;;;5093655;28;20089;-68
2023/07/30 01:48:14;;;;;;;7.93;6.90;;;;;;;;;;5093622;28;20043;-68
2023/07/30 01:50:41;;;;;;;8.88;7.70;;;;;;;;;;5075541;28;20032;-68
2023/07/30 01:53:10;;;;;;;9.80;7.35;;;;;;;;;;5093799;28;20032;-69
2023/07/30 01:55:38;;;;;;;9.20;7.18;;;;;;;;;;5093387;28;20499;-68
2023/07/30 01:58:04;;;;;;;11.98;7.05;;;;;;;;;;5093169;28;20024;-68
2023/07/30 02:00:30;;;;;;;8.77;7.20;;;;;;;;;;5093542;28;20024;-68
2023/07/30 02:02:57;;;;;;;8.07;6.97;;;;;;;;;;5093222;28;20070;-68
2023/07/30 02:05:23;;;;;;;8.02;6.65;;;;;;;;;;5093121;28;20020;-68
2023/07/30 02:07:49;;;;;;;8.77;6.97;;;;;;;;;;5093315;28;20043;-68
2023/07/30 02:10:18;;;;;;;7.90;6.90;;;;;;;;;;5092827;28;20051;-67
2023/07/30 02:12:45;;;;;;;9.30;7.65;;;;;;;;;;5092924;28;20369;-68
2023/07/30 02:15:14;;;;;;;8.35;7.10;;;;;;;;;;5093275;28;20081;-67
2023/07/30 02:17:41;;;;;;;8.63;6.80;;;;;;;;;;5093005;28;20031;-68
2023/07/30 02:20:07;;;;;;;8.77;6.78;;;;;;;;;;5092997;28;20391;-68
2023/07/30 02:22:34;;;;;;;8.15;6.75;;;;;;;;;;5092849;28;20059;-68
2023/07/30 02:25:00;;;;;;;8.40;7.40;;;;;;;;;;5093106;28;20042;-68
2023/07/30 02:27:29;;;;;;;7.63;6.82;;;;;;;;;;5092918;28;20060;-68
2023/07/30 02:29:55;;;;;;;8.52;7.03;;;;;;;;;;5092628;28;20103;-68
2023/07/30 02:32:22;;;;;;;8.77;7.00;;;;;;;;;;5092447;28;20032;-68
2023/07/30 02:34:48;;;;;;;7.68;6.80;;;;;;;;;;5092793;28;20031;-68
2023/07/30 02:37:14;;;;;;;8.48;7.20;;;;;;;;;;5092741;28;20103;-68
2023/07/30 02:39:41;;;;;;;8.68;6.90;;;;;;;;;;5092257;28;20016;-68
2023/07/30 02:42:10;;;;;;;8.68;7.45;;;;;;;;;;5092588;28;20035;-68
2023/07/30 02:44:36;;;;;;;7.75;6.95;;;;;;;;;;5092363;28;20028;-68
2023/07/30 02:47:05;;;;;;;10.02;7.15;;;;;;;;;;5092435;28;20497;-68
2023/07/30 02:49:34;;;;;;;8.00;6.88;;;;;;;;;;5092337;28;20066;-68
2023/07/30 02:52:01;;;;;;;7.78;6.72;;;;;;;;;;5092242;28;20016;-68
2023/07/30 02:54:27;;;;;;;8.52;7.32;;;;;;;;;;5092311;28;20583;-68
2023/07/30 02:56:53;;;;;;;7.82;7.03;;;;;;;;;;5092372;28;20039;-67
2023/07/30 02:59:20;;;;;;;8.57;6.70;;;;;;;;;;5092389;28;20109;-68
2023/07/30 03:01:46;;;;;;;8.20;7.13;;;;;;;;;;5091945;28;20024;-68
2023/07/30 03:04:13;;;;;;;8.27;6.70;;;;;;;;;;5092324;28;20031;-68
2023/07/30 03:06:39;;;;;;;7.90;6.53;;;;;;;;;;5092194;28;20479;-68
2023/07/30 03:09:05;;;;;;;7.68;6.60;;;;;;;;;;5092185;28;20039;-68
2023/07/30 03:11:31;;;;;;;7.15;6.45;;;;;;;;;;5092004;28;20052;-68
2023/07/30 03:13:58;;;;;;;8.40;7.03;;;;;;;;;;5092239;28;20028;-68
2023/07/30 03:16:24;;;;;;;7.10;6.30;;;;;;;;;;5092194;28;20024;-68
2023/07/30 03:18:51;;;;;;;8.18;6.57;;;;;;;;;;5092099;28;20016;-68
2023/07/30 03:21:17;;;;;;;7.07;6.32;;;;;;;;;;5091956;28;20386;-68
2023/07/30 03:23:44;;;;;;;11.00;7.28;;;;;;;;;;5091814;28;20474;-68
2023/07/30 03:26:11;;;;;;;8.45;6.78;;;;;;;;;;5091996;28;20036;-68
2023/07/30 03:28:38;;;;;;;9.25;6.95;;;;;;;;;;5091914;28;20103;-68
2023/07/30 03:31:04;;;;;;;8.88;6.72;;;;;;;;;;5091852;28;20026;-68
2023/07/30 03:33:30;;;;;;;8.13;6.85;;;;;;;;;;5091831;28;20024;-68
2023/07/30 03:35:57;;;;;;;8.45;6.82;;;;;;;;;;5091822;28;20452;-68
2023/07/30 03:47:33;;;;;;;8.77;6.90;;;;;;;;;;5029317;28;20033;-67
2023/07/30 03:53:13;;;;;;;8.98;7.20;;;;;;;;;;4971001;28;20050;-67
2023/07/30 03:55:40;;;;;;;7.70;6.43;;;;;;;;;;4984635;28;20491;-68
2023/07/30 03:58:12;;;;;;;8.63;6.78;;;;;;;;;;5057951;28;20081;-68
2023/07/30 04:00:38;;;;;;;7.93;6.57;;;;;;;;;;5095782;28;20474;-68
2023/07/30 04:03:05;;;;;;;7.90;6.18;;;;;;;;;;5095505;28;20780;-67
2023/07/30 04:05:32;;;;;;;7.57;6.78;;;;;;;;;;5095514;28;20035;-69
2023/07/30 04:07:58;;;;;;;8.90;6.80;;;;;;;;;;5095471;28;20466;-68
2023/07/30 04:10:24;;;;;;;8.40;7.15;;;;;;;;;;5095263;28;20058;-67
2023/07/30 04:12:51;;;;;;;8.07;6.60;;;;;;;;;;5095125;28;20466;-68
2023/07/30 04:15:17;;;;;;;9.65;6.80;;;;;;;;;;5095305;28;20030;-68
2023/07/30 04:17:43;;;;;;;7.82;6.75;;;;;;;;;;5095265;28;20031;-68
2023/07/30 04:20:10;;;;;;;7.68;6.68;;;;;;;;;;5095465;28;20028;-68
2023/07/30 04:22:37;;;;;;;8.52;6.85;;;;;;;;;;5095238;28;20077;-68
2023/07/30 04:25:03;;;;;;;9.00;6.47;;;;;;;;;;5095172;28;20028;-68
2023/07/30 04:27:29;;;;;;;7.05;6.35;;;;;;;;;;5095177;28;20026;-68
2023/07/30 04:29:56;;;;;;;7.25;6.32;;;;;;;;;;5095370;28;20032;-68
2023/07/30 04:32:22;;;;;;;9.65;7.20;;;;;;;;;;5095449;28;20039;-68
2023/07/30 04:34:48;;;;;;;7.82;6.75;;;;;;;;;;5095242;28;20024;-67
2023/07/30 04:37:15;;;;;;;8.15;6.50;;;;;;;;;;5095048;28;20016;-68
2023/07/30 04:39:41;;;;;;;8.82;6.90;;;;;;;;;;5094769;28;20031;-68
2023/07/30 04:42:08;;;;;;;7.68;6.65;;;;;;;;;;5094848;28;20370;-68
2023/07/30 04:44:34;;;;;;;8.70;7.72;;;;;;;;;;5094738;28;20024;-68
2023/07/30 04:47:00;;;;;;;8.57;7.13;;;;;;;;;;5094631;28;20032;-68
2023/07/30 04:49:27;;;;;;;8.20;6.88;;;;;;;;;;5094609;28;20020;-68
2023/07/30 04:51:53;;;;;;;9.13;7.18;;;;;;;;;;5094595;28;20074;-68
2023/07/30 04:54:20;;;;;;;7.93;6.53;;;;;;;;;;5094532;28;20101;-68
2023/07/30 04:56:49;;;;;;;9.75;6.95;;;;;;;;;;5094449;28;20415;-67
2023/07/30 04:59:15;;;;;;;7.75;6.60;;;;;;;;;;5094388;28;20020;-68
2023/07/30 05:01:41;;;;;;;8.52;6.93;;;;;;;;;;5094401;28;20031;-67
2023/07/30 05:04:08;;;;;;;8.25;6.75;;;;;;;;;;5093978;28;20059;-68
2023/07/30 05:06:34;;;;;;;8.88;7.28;;;;;;;;;;5094265;28;20020;-67
2023/07/30 05:09:00;;;;;;;10.20;6.78;;;;;;;;;;5094276;28;20513;-68
2023/07/30 05:11:27;;;;;;;8.70;6.88;;;;;;;;;;5093850;28;20088;-68
2023/07/30 05:13:53;;;;;;;9.82;7.22;;;;;;;;;;5094255;28;20024;-68
2023/07/30 05:16:19;;;;;;;11.13;7.13;;;;;;;;;;5094194;28;20020;-68
2023/07/30 05:18:46;;;;;;;8.98;7.30;;;;;;;;;;5094090;28;20378;-68
2023/07/30 05:21:12;;;;;;;8.20;6.93;;;;;;;;;;5094038;28;20043;-68
2023/07/30 05:23:39;;;;;;;9.13;6.70;;;;;;;;;;5094144;28;20024;-67
2023/07/30 05:26:05;;;;;;;9.55;6.90;;;;;;;;;;5093833;28;20078;-68
2023/07/30 05:28:32;;;;;;;8.77;7.20;;;;;;;;;;5093908;28;20462;-68
2023/07/30 05:30:59;;;;;;;8.82;7.18;;;;;;;;;;5093741;28;20056;-68
2023/07/30 05:33:25;;;;;;;9.27;7.65;;;;;;;;;;5093768;28;20020;-68
2023/07/30 05:35:51;;;;;;;8.70;7.03;;;;;;;;;;5093932;28;20117;-67
2023/07/30 05:38:18;;;;;;;7.97;6.78;;;;;;;;;;5093676;28;20484;-68
2023/07/30 05:40:44;;;;;;;9.15;7.07;;;;;;;;;;5093674;28;20028;-69
2023/07/30 05:43:10;;;;;;;9.73;7.20;;;;;;;;;;5093536;28;20063;-68
2023/07/30 05:45:37;;;;;;;9.68;7.50;;;;;;;;;;5093619;28;20024;-68
2023/07/30 05:48:03;;;;;;;10.32;7.40;;;;;;;;;;5093272;28;20024;-67
2023/07/30 05:50:30;;;;;;;9.07;7.10;;;;;;;;;;5093325;28;20027;-68
2023/07/30 05:52:56;;;;;;;8.25;7.10;;;;;;;;;;5093169;28;20097;-68
2023/07/30 05:55:23;;;;;;;9.32;7.80;;;;;;;;;;5093474;28;20107;-68
2023/07/30 05:57:49;;;;;;;8.60;7.45;;;;;;;;;;5093329;28;20031;-68
2023/07/30 06:00:16;;;;;;;10.27;7.57;;;;;;;;;;5093586;28;20022;-68
2023/07/30 06:02:42;;;;;;;10.63;7.43;;;;;;;;;;5093151;28;20032;-68
2023/07/30 06:05:09;;;;;;;8.60;7.28;;;;;;;;;;5093056;28;20020;-68
2023/07/30 06:07:38;;;;;;;9.43;7.25;;;;;;;;;;5093194;28;20386;-67
2023/07/30 06:10:04;;;;;;;9.13;7.63;;;;;;;;;;5092687;28;20106;-68
2023/07/30 06:12:31;;;;;;;8.85;7.25;;;;;;;;;;5093007;28;20073;-68
2023/07/30 06:14:57;;;;;;;11.70;7.28;;;;;;;;;;5093091;28;20024;-68
2023/07/30 06:17:24;;;;;;;10.80;7.70;;;;;;;;;;5092191;28;20091;-68
2023/07/30 06:19:50;;;;;;;8.20;6.65;;;;;;;;;;5093052;28;20111;-68
2023/07/30 06:22:16;;;;;;;10.35;7.20;;;;;;;;;;5093215;28;20121;-68
2023/07/30 06:24:43;;;;;;;8.23;7.18;;;;;;;;;;5092890;28;20194;-68
2023/07/30 06:27:09;;;;;;;10.15;6.93;;;;;;;;;;5092805;28;20028;-67
2023/07/30 06:29:36;;;;;;;8.05;6.88;;;;;;;;;;5092819;28;20031;-67
2023/07/30 06:32:02;;;;;;;10.32;7.13;;;;;;;;;;5092648;28;20132;-68
2023/07/30 06:34:29;;;;;;;10.93;7.03;;;;;;;;;;5092481;28;20024;-68
2023/07/30 06:36:55;;;;;;;9.77;7.57;;;;;;;;;;5092665;28;20035;-68
2023/07/30 06:39:21;;;;;;;10.57;7.07;;;;;;;;;;5092428;28;20049;-67
2023/07/30 06:41:48;;;;;;;8.63;6.60;;;;;;;;;;5092468;28;20362;-67
2023/07/30 06:44:14;;;;;;;8.52;6.80;;;;;;;;;;5092467;28;20482;-67
2023/07/30 06:46:40;;;;;;;9.10;6.40;;;;;;;;;;5092659;28;20110;-68
2023/07/30 06:49:07;;;;;;;8.38;6.70;;;;;;;;;;5092377;28;20386;-68
2023/07/30 06:51:33;;;;;;;8.23;6.68;;;;;;;;;;5092369;28;20492;-68
2023/07/30 06:56:58;;;;;;;7.35;6.22;;;;;;;;;;5066457;28;20063;-68
2023/07/30 06:59:27;;;;;;;8.40;6.70;;;;;;;;;;5092004;28;20064;-68
2023/07/30 07:01:54;;;;;;;8.07;6.38;;;;;;;;;;5092019;28;20506;-68
2023/07/30 07:04:21;;;;;;;8.52;6.50;;;;;;;;;;5091935;28;20036;-68
2023/07/30 07:07:03;;;;;;;;;;;;;;;;;;;;;
2023/07/30 07:09:30;;;;;;;7.85;6.30;;;;;;;;;;5086617;28;20397;-67
2023/07/30 07:11:57;;;;;;;7.45;6.63;;;;;;;;;;5091731;28;20059;-68
2023/07/30 07:14:24;;;;;;;7.25;6.10;;;;;;;;;;5092189;28;20016;-68
2023/07/30 07:16:50;;;;;;;8.77;6.60;;;;;;;;;;5092252;28;20458;-68
2023/07/30 07:19:16;;;;;;;7.05;6.10;;;;;;;;;;5092296;28;20042;-68
2023/07/30 07:21:43;;;;;;;9.60;6.50;;;;;;;;;;5091997;28;20435;-68
2023/07/30 07:24:09;;;;;;;7.50;5.80;;;;;;;;;;5092200;28;20035;-68
2023/07/30 07:26:36;;;;;;;7.15;6.30;;;;;;;;;;5091941;28;20351;-68
2023/07/30 07:29:02;;;;;;;7.95;6.22;;;;;;;;;;5095995;28;20056;-68
2023/07/30 07:31:28;;;;;;;7.25;6.28;;;;;;;;;;5096321;28;20035;-68
2023/07/30 07:33:55;;;;;;;7.53;6.30;;;;;;;;;;5096175;28;20023;-68
2023/07/30 07:36:21;;;;;;;9.40;6.15;;;;;;;;;;5096056;28;20102;-68
2023/07/30 07:38:47;;;;;;;8.43;6.60;;;;;;;;;;5095982;28;20051;-68
2023/07/30 07:41:17;;;;;;;6.93;6.20;;;;;;;;;;5096062;28;20094;-68
2023/07/30 07:43:52;;;;;;;7.63;6.47;;;;;;;;;;5095991;28;20020;-68
2023/07/30 07:46:19;;;;;;;8.82;6.78;;;;;;;;;;5095809;28;20113;-68
2023/07/30 07:48:45;;;;;;;7.38;6.55;;;;;;;;;;5095996;28;20081;-68
2023/07/30 07:51:12;;;;;;;8.20;6.38;;;;;;;;;;5095859;28;20056;-68
2023/07/30 07:53:38;;;;;;;10.27;6.85;;;;;;;;;;5095845;28;20047;-68
2023/07/30 07:56:04;;;;;;;8.25;6.57;;;;;;;;;;5095902;28;20027;-68
2023/07/30 07:58:32;;;;;;;8.43;6.70;;;;;;;;;;5095856;28;20028;-68
2023/07/30 08:00:58;;;;;;;7.38;6.40;;;;;;;;;;5095774;28;20024;-68
2023/07/30 08:03:26;;;;;;;8.60;6.43;;;;;;;;;;5095806;28;20039;-68
2023/07/30 08:05:53;;;;;;;7.75;6.38;;;;;;;;;;5095715;28;20085;-68
2023/07/30 08:08:19;;;;;;;8.63;6.50;;;;;;;;;;5095884;28;20844;-68
2023/07/30 08:10:47;;;;;;;7.65;6.60;;;;;;;;;;5095579;28;20055;-68
2023/07/30 08:13:14;;;;;;;9.20;6.60;;;;;;;;;;5095679;28;20028;-68
2023/07/30 08:15:40;;;;;;;11.93;6.95;;;;;;;;;;5095732;28;20141;-68
2023/07/30 08:18:07;;;;;;;8.75;6.30;;;;;;;;;;5095690;28;20027;-68
2023/07/30 08:20:33;;;;;;;8.07;5.95;;;;;;;;;;5095390;28;20029;-68
2023/07/30 08:23:00;;;;;;;11.43;6.28;;;;;;;;;;5095192;28;20030;-68
2023/07/30 08:25:26;;;;;;;10.10;6.70;;;;;;;;;;5095185;28;20036;-68
2023/07/30 08:27:52;;;;;;;8.43;6.55;;;;;;;;;;5095000;28;20032;-68
2023/07/30 08:30:19;;;;;;;7.68;6.40;;;;;;;;;;5095096;28;20073;-68
2023/07/30 08:32:45;;;;;;;9.02;6.53;;;;;;;;;;5094857;28;20024;-68
2023/07/30 08:35:11;;;;;;;8.90;6.40;;;;;;;;;;5094896;28;20064;-68
2023/07/30 08:37:38;;;;;;;8.57;6.80;;;;;;;;;;5094916;28;20046;-68
2023/07/30 08:40:04;;;;;;;9.20;6.53;;;;;;;;;;5094031;28;20024;-68
2023/07/30 08:42:32;;;;;;;7.55;6.18;;;;;;;;;;5094799;28;20028;-68
2023/07/30 08:44:58;;;;;;;7.78;6.05;;;;;;;;;;5094722;28;20025;-68
2023/07/30 08:47:24;;;;;;;7.03;5.95;;;;;;;;;;5094640;28;20024;-68
2023/07/30 08:49:51;;;;;;;7.47;6.00;;;;;;;;;;5094656;28;20028;-68
2023/07/30 08:52:17;;;;;;;7.05;6.05;;;;;;;;;;5094550;28;20055;-68
2023/07/30 08:54:45;;;;;;;7.63;6.10;;;;;;;;;;5094587;28;20012;-68
2023/07/30 08:57:11;;;;;;;10.75;6.20;;;;;;;;;;5094604;28;20077;-68
2023/07/30 08:59:40;;;;;;;8.00;6.45;;;;;;;;;;5094387;28;20031;-68
2023/07/30 09:02:12;;;;;;;8.40;6.43;;;;;;;;;;5094380;28;20032;-68
2023/07/30 09:04:39;;;;;;;6.87;5.90;;;;;;;;;;5076054;28;20505;-68
2023/07/30 09:07:09;;;;;;;7.25;5.90;;;;;;;;;;5074052;28;20036;-68
2023/07/30 09:09:37;;;;;;;8.90;6.90;;;;;;;;;;5074102;28;20020;-68
2023/07/30 09:12:03;;;;;;;7.93;6.15;;;;;;;;;;5073557;28;20056;-69
2023/07/30 09:14:30;;;;;;;9.35;6.13;;;;;;;;;;5074176;28;20036;-68
2023/07/30 09:16:59;;;;;;;10.32;5.93;;;;;;;;;;5074239;28;20082;-69
2023/07/30 09:19:26;;;;;;;7.32;6.45;;;;;;;;;;5073912;28;20029;-68
2023/07/30 09:21:53;;;;;;;7.97;6.10;;;;;;;;;;5073684;28;20024;-68
2023/07/30 09:24:23;;;;;;;8.63;6.45;;;;;;;;;;5074028;28;20103;-68
2023/07/30 09:26:49;;;;;;;9.80;6.25;;;;;;;;;;5073701;28;20024;-68
2023/07/30 09:29:15;;;;;;;7.60;6.13;;;;;;;;;;5073664;28;20039;-69
2023/07/30 09:31:50;;;;;;;7.97;6.32;;;;;;;;;;5073459;28;20029;-68
2023/07/30 09:34:18;;;;;;;7.88;5.95;;;;;;;;;;5056094;28;20020;-68
2023/07/30 09:36:48;;;;;;;8.20;6.38;;;;;;;;;;5073490;28;20352;-68
2023/07/30 09:42:00;;;;;;;8.05;6.07;;;;;;;;;;5130437;27;20818;-67
2023/07/30 09:44:26;;;;;;;9.20;6.17;;;;;;;;;;5130406;27;20055;-67
2023/07/30 09:46:53;;;;;;;7.05;5.85;;;;;;;;;;5130444;27;20414;-67
2023/07/30 09:49:19;;;;;;;8.57;6.15;;;;;;;;;;5130290;27;20027;-67
2023/07/30 09:51:46;;;;;;;8.55;6.18;;;;;;;;;;5130221;27;20030;-67
2023/07/30 09:54:13;;;;;;;7.38;5.70;;;;;;;;;;5130038;27;20106;-67
2023/07/30 09:56:41;;;;;;;6.55;5.47;;;;;;;;;;5129963;27;20068;-67
2023/07/30 09:59:08;;;;;;;6.95;5.57;;;;;;;;;;5130094;27;20402;-67
2023/07/30 10:01:38;;;;;;;7.88;5.85;;;;;;;;;;5128696;28;20020;-67
2023/07/30 10:04:09;;;;;;;8.05;5.78;;;;;;;;;;5130078;27;20478;-67
2023/07/30 10:06:38;;;;;;;6.20;5.22;;;;;;;;;;5130042;28;20027;-67
2023/07/30 10:09:08;;;;;;;6.65;5.82;;;;;;;;;;5130127;28;20027;-67
2023/07/30 10:11:36;;;;;;;7.32;5.70;;;;;;;;;;5129849;28;20027;-67
2023/07/30 10:14:03;;;;;;;10.07;5.78;;;;;;;;;;5129867;27;20543;-67
2023/07/30 10:16:30;;;;;;;8.43;5.90;;;;;;;;;;5129913;28;20023;-67
2023/07/30 10:18:57;;;;;;;7.25;5.30;;;;;;;;;;5129824;28;20024;-67
2023/07/30 10:21:25;;;;;;;5.90;5.25;;;;;;;;;;5128671;28;20038;-67
2023/07/30 10:24:04;;;;;;;7.10;5.47;;;;;;;;;;5129620;27;20120;-67
2023/07/30 10:26:36;;;;;;;6.70;5.25;;;;;;;;;;5129569;28;20031;-68
2023/07/30 10:31:54;;;;;;;6.53;5.35;;;;;;;;;;5051764;27;1759943;-69
2023/07/30 10:34:21;;;;;;;6.15;5.40;;;;;;;;;;5089681;28;20043;-68
2023/07/30 10:36:48;;;;;;;7.03;6.07;;;;;;;;;;5089285;28;20466;-68
2023/07/30 10:39:19;;;;;;;7.43;5.50;;;;;;;;;;5089708;28;20028;-68
2023/07/30 10:41:47;;;;;;;5.85;5.22;;;;;;;;;;5089777;28;20063;-68
2023/07/30 10:44:24;;;;;;;8.07;5.70;;;;;;;;;;5089283;28;20039;-68
2023/07/30 10:47:03;;;;;;;7.20;5.57;;;;;;;;;;5089374;28;20202;-68
2023/07/30 10:49:40;;;;;;;6.95;5.55;;;;;;;;;;5089185;28;20070;-68
2023/07/30 10:52:06;;;;;;;7.75;5.60;;;;;;;;;;5089399;28;20016;-68
2023/07/30 10:54:37;;;;;;;6.43;5.32;;;;;;;;;;5089254;28;20111;-68
2023/07/30 10:57:03;;;;;;;6.95;5.30;;;;;;;;;;5089157;28;20519;-69
2023/07/30 10:59:40;;;;;;;7.47;5.38;;;;;;;;;;5089014;28;20024;-68
2023/07/30 11:02:13;;;;;;;6.78;5.70;;;;;;;;;;5089337;28;20020;-68
2023/07/30 11:04:40;;;;;;;5.95;5.35;;;;;;;;;;5088914;28;20020;-68
2023/07/30 11:07:06;;;;;;;6.93;5.55;;;;;;;;;;5088683;28;20020;-69
2023/07/30 11:09:33;;;;;;;6.95;5.20;;;;;;;;;;5088887;28;20033;-68
2023/07/30 11:11:59;;;;;;;6.90;5.32;;;;;;;;;;5088928;28;20099;-68
2023/07/30 11:14:27;;;;;;;7.43;5.43;;;;;;;;;;5088617;28;20024;-68
2023/07/30 11:16:54;;;;;;;6.40;5.45;;;;;;;;;;5088659;28;20104;-68
2023/07/30 11:19:21;;;;;;;7.50;5.45;;;;;;;;;;5088644;28;20020;-68
2023/07/30 11:21:48;;;;;;;5.95;5.22;;;;;;;;;;5088731;28;20066;-68
2023/07/30 11:24:14;;;;;;;8.05;5.55;;;;;;;;;;5088553;28;20028;-68
2023/07/30 11:26:41;;;;;;;6.22;4.90;;;;;;;;;;5088520;28;20124;-68
2023/07/30 11:29:18;;;;;;;6.25;4.72;;;;;;;;;;5088374;28;20475;-68
2023/07/30 11:31:45;;;;;;;7.70;4.95;;;;;;;;;;5088259;28;20053;-69
2023/07/30 11:34:12;;;;;;;6.18;4.57;;;;;;;;;;5088433;28;20021;-68
2023/07/30 11:36:39;;;;;;;5.63;4.63;;;;;;;;;;5088483;28;20031;-68
2023/07/30 11:39:06;;;;;;;6.28;4.70;;;;;;;;;;5088306;28;20108;-68
2023/07/30 11:41:33;;;;;;;6.65;4.95;;;;;;;;;;5084072;28;20028;-68
2023/07/30 11:43:59;;;;;;;6.15;4.97;;;;;;;;;;5074731;28;20119;-69
2023/07/30 11:46:26;;;;;;;6.07;4.90;;;;;;;;;;5074860;28;20059;-68
2023/07/30 11:48:53;;;;;;;5.90;4.65;;;;;;;;;;5074644;28;20024;-68
2023/07/30 11:51:31;;;;;;;6.20;4.78;;;;;;;;;;5074521;28;20111;-68
2023/07/30 11:53:59;;;;;;;5.63;4.80;;;;;;;;;;5074717;28;20023;-68
2023/07/30 11:56:27;;;;;;;6.95;5.13;;;;;;;;;;5073222;28;20490;-68
2023/07/30 11:58:55;;;;;;;6.95;5.05;;;;;;;;;;5074357;28;20028;-68
2023/07/30 12:01:23;;;;;;;6.35;4.82;;;;;;;;;;5074586;28;20024;-68
2023/07/30 12:03:49;;;;;;;6.43;5.20;;;;;;;;;;5074293;28;20498;-69
2023/07/30 12:06:19;;;;;;;5.57;5.07;;;;;;;;;;5074351;28;20029;-68
2023/07/30 12:08:45;;;;;;;6.38;5.13;;;;;;;;;;5074479;28;20028;-68
2023/07/30 12:11:11;;;;;;;6.55;5.32;;;;;;;;;;5074200;28;20032;-68
2023/07/30 12:13:45;;;;;;;6.15;5.32;;;;;;;;;;5074164;28;20028;-68
2023/07/30 12:16:12;;;;;;;5.95;5.05;;;;;;;;;;5073020;28;20492;-68
2023/07/30 12:18:39;;;;;;;6.53;5.10;;;;;;;;;;5074081;28;20028;-69
2023/07/30 12:21:07;;;;;;;6.90;4.90;;;;;;;;;;5074164;28;20031;-68
2023/07/30 12:23:34;;;;;;;7.93;5.40;;;;;;;;;;5073890;28;20035;-68
2023/07/30 12:26:00;;;;;;;6.88;5.32;;;;;;;;;;5074173;28;20082;-68
2023/07/30 12:28:27;;;;;;;6.95;5.00;;;;;;;;;;5073952;28;20024;-68
2023/07/30 12:30:53;;;;;;;7.60;5.40;;;;;;;;;;5073517;28;20044;-68
2023/07/30 12:33:19;;;;;;;6.38;5.22;;;;;;;;;;5073795;28;20070;-68
2023/07/30 12:35:46;;;;;;;6.65;5.03;;;;;;;;;;5073753;28;20027;-68
2023/07/30 12:38:13;;;;;;;6.18;5.05;;;;;;;;;;5073926;28;20024;-68
2023/07/30 12:40:39;;;;;;;7.13;5.40;;;;;;;;;;5073669;28;20035;-68
2023/07/30 12:43:05;;;;;;;6.43;5.00;;;;;;;;;;5072533;28;20048;-68
2023/07/30 12:45:32;;;;;;;5.82;5.13;;;;;;;;;;5073784;28;20379;-68
2023/07/30 12:47:58;;;;;;;7.88;5.22;;;;;;;;;;5073599;28;20032;-68
2023/07/30 12:50:27;;;;;;;6.80;5.50;;;;;;;;;;5073515;28;20028;-68
2023/07/30 12:52:54;;;;;;;5.30;4.80;;;;;;;;;;5072856;28;20020;-68
2023/07/30 12:55:20;;;;;;;7.10;5.22;;;;;;;;;;5072959;28;20021;-68
2023/07/30 12:57:46;;;;;;;5.70;4.72;;;;;;;;;;5073540;28;20402;-68
2023/07/30 13:00:20;;;;;;;5.82;4.90;;;;;;;;;;5073526;28;20024;-68
2023/07/30 13:02:46;;;;;;;6.00;5.40;;;;;;;;;;5073345;28;20367;-68
2023/07/30 13:05:13;;;;;;;7.07;5.28;;;;;;;;;;5073298;28;20108;-68
2023/07/30 13:07:40;;;;;;;7.85;5.13;;;;;;;;;;5073162;28;20028;-68
2023/07/30 13:10:07;;;;;;;9.18;5.35;;;;;;;;;;5072796;28;20024;-69
2023/07/30 13:12:33;;;;;;;7.40;5.43;;;;;;;;;;5073110;28;20025;-68
2023/07/30 13:15:00;;;;;;;7.25;5.22;;;;;;;;;;5072927;28;20024;-69
2023/07/30 13:17:27;;;;;;;7.50;5.18;;;;;;;;;;5072741;28;20024;-68
2023/07/30 13:19:53;;;;;;;7.45;5.03;;;;;;;;;;5073017;28;20032;-69
2023/07/30 13:22:20;;;;;;;6.70;5.30;;;;;;;;;;5072826;28;20028;-68
2023/07/30 13:24:46;;;;;;;6.90;5.55;;;;;;;;;;5072962;28;20505;-68
2023/07/30 13:27:13;;;;;;;7.47;5.38;;;;;;;;;;5072789;28;20030;-68
2023/07/30 13:29:39;;;;;;;8.23;5.35;;;;;;;;;;5072578;28;20474;-68
2023/07/30 13:32:06;;;;;;;6.95;5.00;;;;;;;;;;5072956;28;20448;-68
2023/07/30 13:34:32;;;;;;;8.55;5.40;;;;;;;;;;5071498;28;20025;-68
2023/07/30 13:36:59;;;;;;;6.25;5.18;;;;;;;;;;5072801;28;20386;-68
2023/07/30 13:39:25;;;;;;;7.88;5.47;;;;;;;;;;5072783;28;20811;-68
2023/07/30 13:41:51;;;;;;;7.15;5.38;;;;;;;;;;5072676;28;20788;-69
2023/07/30 13:44:18;;;;;;;7.60;5.40;;;;;;;;;;5072431;28;20021;-68
2023/07/30 13:46:44;;;;;;;7.32;5.20;;;;;;;;;;5072479;28;20025;-68
2023/07/30 13:49:10;;;;;;;8.32;5.40;;;;;;;;;;5072512;28;20024;-68
2023/07/30 13:51:37;;;;;;;7.97;5.25;;;;;;;;;;5072444;28;20425;-69
2023/07/30 13:54:04;;;;;;;5.65;4.80;;;;;;;;;;5072351;28;20027;-68
2023/07/30 13:56:31;;;;;;;6.47;5.18;;;;;;;;;;5072453;28;20031;-68
2023/07/30 13:58:57;;;;;;;7.60;5.18;;;;;;;;;;5072190;28;20463;-69
2023/07/30 14:01:24;;;;;;;7.78;5.30;;;;;;;;;;5072253;28;20025;-68
2023/07/30 14:03:50;;;;;;;8.00;5.32;;;;;;;;;;5072263;28;20064;-68
2023/07/30 14:06:17;;;;;;;6.65;5.03;;;;;;;;;;5071968;28;20036;-68
2023/07/30 14:08:43;;;;;;;10.32;5.00;;;;;;;;;;5072192;28;20028;-68
2023/07/30 14:11:09;;;;;;;7.80;5.13;;;;;;;;;;5072100;28;20035;-68
2023/07/30 14:13:36;;;;;;;7.47;5.22;;;;;;;;;;5072066;28;20062;-69
2023/07/30 14:16:02;;;;;;;7.30;4.97;;;;;;;;;;5072277;28;20024;-68
2023/07/30 14:18:28;;;;;;;6.20;4.68;;;;;;;;;;5071911;28;20020;-69
2023/07/30 14:20:55;;;;;;;6.30;4.95;;;;;;;;;;5071979;28;20024;-68
2023/07/30 14:23:21;;;;;;;6.63;5.00;;;;;;;;;;5071967;28;20390;-68
2023/07/30 14:25:47;;;;;;;6.90;5.28;;;;;;;;;;5072005;28;20052;-68
2023/07/30 14:28:24;;;;;;;;;;;;;;;;;;;;;
2023/07/30 14:31:06;;;;;;;7.40;5.20;;;;;;;;;;5067259;28;20044;-68
2023/07/30 14:33:33;;;;;;;8.88;4.78;;;;;;;;;;5071804;28;20555;-68
2023/07/30 14:36:04;;;;;;;12.23;5.00;;;;;;;;;;5071720;28;20021;-68
2023/07/30 14:38:33;;;;;;;10.68;4.93;;;;;;;;;;5071666;28;20033;-68
2023/07/30 14:41:00;;;;;;;11.88;5.00;;;;;;;;;;5071806;28;20024;-68
2023/07/30 14:43:26;;;;;;;12.30;5.40;;;;;;;;;;5071686;28;20094;-68
2023/07/30 14:45:53;;;;;;;13.05;5.07;;;;;;;;;;5071881;28;20032;-68
2023/07/30 14:48:19;;;;;;;14.48;5.40;;;;;;;;;;5071737;28;20029;-68
2023/07/30 14:50:49;;;;;;;13.88;5.03;;;;;;;;;;5071921;28;20025;-68
2023/07/30 14:53:15;;;;;;;9.40;5.00;;;;;;;;;;5071807;28;20039;-68
2023/07/30 14:55:42;;;;;;;7.43;4.55;;;;;;;;;;5071836;28;20031;-68
2023/07/30 14:58:11;;;;;;;10.57;4.65;;;;;;;;;;5071658;28;20059;-68
2023/07/30 15:00:38;;;;;;;9.35;4.72;;;;;;;;;;5072069;28;20040;-68
2023/07/30 15:03:04;;;;;;;9.35;4.47;;;;;;;;;;5071946;28;20037;-68